createdAt,value
2019-02-15T00:00:55.849Z,67.40
2019-02-15T00:03:26.090Z,69.30
2019-02-15T00:05:56.554Z,68.93
2019-02-15T00:08:26.790Z,74.30
2019-02-15T00:10:57.282Z,74.93
2019-02-15T00:13:27.460Z,79.00
2019-02-15T00:15:58.122Z,74.90
2019-02-15T00:18:44.666Z,77.00
2019-02-15T00:21:20.065Z,77.17
2019-02-15T00:23:51.142Z,75.00
2019-02-15T00:26:21.739Z,80.17
2019-02-15T00:28:52.940Z,74.03
2019-02-15T00:31:23.406Z,83.53
2019-02-15T00:33:54.243Z,84.93
2019-02-15T00:36:24.522Z,91.07
2019-02-15T00:38:55.302Z,94.33
2019-02-15T00:41:25.623Z,92.53
2019-02-15T00:43:56.358Z,92.93
2019-02-15T00:46:44.275Z,98.23
2019-02-15T00:49:24.524Z,90.83
2019-02-15T00:52:15.412Z,81.83
2019-02-15T00:55:14.004Z,83.57
2019-02-15T00:58:21.258Z,85.63
2019-02-15T01:01:06.354Z,84.73
2019-02-15T01:03:57.288Z,80.33
2019-02-15T01:06:42.906Z,75.90
2019-02-15T01:09:30.778Z,78.13
2019-02-15T01:12:20.198Z,77.87
2019-02-15T01:14:50.444Z,68.87
2019-02-15T01:17:20.856Z,71.77
2019-02-15T01:19:51.150Z,71.07
2019-02-15T01:22:21.684Z,74.40
2019-02-15T01:24:53.048Z,73.17
2019-02-15T01:27:45.386Z,73.57
2019-02-15T01:30:33.224Z,79.30
2019-02-15T01:33:28.442Z,74.67
2019-02-15T01:36:16.243Z,80.47
2019-02-15T01:39:04.619Z,83.13
2019-02-15T01:41:51.932Z,84.47
2019-02-15T01:44:31.034Z,82.80
2019-02-15T01:47:26.400Z,87.30
2019-02-15T01:49:57.121Z,86.43
2019-02-15T01:52:27.484Z,89.77
2019-02-15T01:54:57.862Z,93.33
2019-02-15T01:57:28.109Z,88.90
2019-02-15T01:59:58.387Z,92.20
2019-02-15T02:02:30.085Z,93.97
2019-02-15T02:05:00.675Z,95.90
2019-02-15T02:07:31.139Z,94.93
2019-02-15T02:10:01.393Z,99.03
2019-02-15T02:12:31.860Z,98.53
2019-02-15T02:15:02.231Z,96.77
2019-02-15T02:17:33.247Z,95.83
2019-02-15T02:20:05.023Z,104.80
2019-02-15T02:22:35.625Z,104.70
2019-02-15T02:25:07.347Z,95.70
2019-02-15T02:27:37.829Z,103.00
2019-02-15T02:30:09.879Z,99.47
2019-02-15T02:32:40.734Z,99.40
2019-02-15T02:35:11.355Z,107.03
2019-02-15T02:37:42.093Z,95.63
2019-02-15T02:40:12.294Z,96.53
2019-02-15T02:42:42.543Z,100.53
2019-02-15T02:45:12.747Z,97.77
2019-02-15T02:47:43.013Z,103.50
2019-02-15T02:50:13.819Z,102.60
2019-02-15T02:52:44.185Z,100.60
2019-02-15T02:55:14.867Z,95.10
2019-02-15T02:57:45.138Z,95.60
2019-02-15T03:00:15.965Z,99.67
2019-02-15T03:02:46.524Z,99.90
2019-02-15T03:05:17.594Z,95.10
2019-02-15T03:07:48.017Z,96.03
2019-02-15T03:10:20.526Z,97.13
2019-02-15T03:12:50.931Z,95.87
2019-02-15T03:15:21.455Z,96.77
2019-02-15T03:17:51.625Z,101.37
2019-02-15T03:20:30.922Z,99.73
2019-02-15T03:22:54.046Z,92.90
2019-02-15T03:25:25.495Z,104.33
2019-02-15T03:27:55.737Z,96.00
2019-02-15T03:30:26.274Z,103.23
2019-02-15T03:32:56.516Z,103.90
2019-02-15T03:35:27.340Z,100.47
2019-02-15T03:38:11.684Z,109.03
2019-02-15T03:40:44.498Z,97.73
2019-02-15T03:43:14.703Z,112.30
2019-02-15T03:45:46.350Z,113.63
2019-02-15T03:48:16.548Z,100.80
2019-02-15T03:50:47.108Z,106.90
2019-02-15T03:53:17.320Z,98.23
2019-02-15T03:55:47.635Z,109.27
2019-02-15T03:58:18.070Z,105.10
2019-02-15T04:00:48.355Z,106.23
2019-02-15T04:03:19.104Z,108.13
2019-02-15T04:05:49.660Z,106.37
2019-02-15T04:08:19.924Z,104.33
2019-02-15T04:10:50.412Z,107.10
2019-02-15T04:13:20.661Z,107.53
2019-02-15T04:15:51.159Z,100.70
2019-02-15T04:18:21.458Z,106.20
2019-02-15T04:20:52.502Z,107.53
2019-02-15T04:23:22.692Z,105.40
2019-02-15T04:25:54.212Z,110.93
2019-02-15T04:28:26.641Z,106.97
2019-02-15T04:30:57.123Z,115.63
2019-02-15T04:33:27.354Z,120.20
2019-02-15T04:35:58.779Z,113.10
2019-02-15T04:38:29.034Z,114.13
2019-02-15T04:40:59.512Z,112.50
2019-02-15T04:43:29.762Z,114.07
2019-02-15T04:46:00.081Z,111.73
2019-02-15T04:48:30.325Z,111.93
2019-02-15T04:51:01.036Z,119.83
2019-02-15T04:53:31.313Z,111.33
2019-02-15T04:56:02.079Z,113.90
2019-02-15T04:58:32.325Z,118.73
2019-02-15T05:01:02.834Z,113.00
2019-02-15T05:03:33.099Z,116.57
2019-02-15T05:06:03.701Z,116.33
2019-02-15T05:08:34.421Z,114.30
2019-02-15T05:11:04.613Z,117.53
2019-02-15T05:13:35.217Z,115.10
2019-02-15T05:16:05.476Z,115.17
2019-02-15T05:18:35.943Z,116.60
2019-02-15T05:21:06.224Z,114.63
2019-02-15T05:23:36.939Z,110.83
2019-02-15T05:26:08.345Z,105.93
2019-02-15T05:28:38.825Z,110.03
2019-02-15T05:31:09.107Z,112.87
2019-02-15T05:33:39.397Z,111.10
2019-02-15T05:36:10.569Z,112.40
2019-02-15T05:38:41.390Z,107.33
2019-02-15T05:41:11.991Z,110.63
2019-02-15T05:43:42.271Z,110.70
2019-02-15T05:46:12.547Z,109.83
2019-02-15T05:48:43.195Z,110.40
2019-02-15T05:51:13.523Z,98.20
2019-02-15T05:53:43.765Z,101.47
2019-02-15T05:56:14.160Z,104.13
2019-02-15T05:58:44.648Z,112.83
2019-02-15T06:01:15.616Z,103.37
2019-02-15T06:03:46.062Z,104.77
2019-02-15T06:06:17.356Z,97.07
2019-02-15T06:08:48.018Z,101.07
2019-02-15T06:11:18.316Z,101.17
2019-02-15T06:13:48.592Z,109.17
2019-02-15T06:16:19.324Z,96.47
2019-02-15T06:18:49.605Z,98.53
2019-02-15T06:21:19.897Z,101.13
2019-02-15T06:23:50.159Z,96.87
2019-02-15T06:26:22.058Z,117.83
2019-02-15T06:28:52.365Z,107.13
2019-02-15T06:31:22.607Z,109.27
2019-02-15T06:33:53.021Z,102.37
2019-02-15T06:36:25.593Z,102.50
2019-02-15T06:38:56.221Z,107.27
2019-02-15T06:41:26.707Z,105.03
2019-02-15T06:43:57.281Z,104.83
2019-02-15T06:46:27.584Z,103.97
2019-02-15T06:48:57.938Z,105.93
2019-02-15T06:51:28.311Z,107.43
2019-02-15T06:53:58.791Z,103.80
2019-02-15T06:56:29.233Z,104.90
2019-02-15T06:59:18.911Z,105.43
2019-02-15T07:02:10.314Z,95.93
2019-02-15T07:05:08.819Z,102.97
2019-02-15T07:07:39.438Z,103.77
2019-02-15T07:10:10.169Z,107.00
2019-02-15T07:12:40.598Z,104.33
2019-02-15T07:15:11.223Z,102.20
2019-02-15T07:17:41.574Z,101.00
2019-02-15T07:20:12.237Z,102.67
2019-02-15T07:22:42.508Z,99.43
2019-02-15T07:25:13.047Z,100.93
2019-02-15T07:27:44.275Z,100.63
2019-02-15T07:30:15.751Z,95.87
2019-02-15T07:32:46.300Z,98.90
2019-02-15T07:35:16.570Z,92.37
2019-02-15T07:37:47.837Z,96.87
2019-02-15T07:40:18.312Z,89.73
2019-02-15T07:42:48.888Z,93.23
2019-02-15T07:45:23.006Z,89.37
2019-02-15T07:47:53.662Z,91.67
2019-02-15T07:50:23.998Z,85.87
2019-02-15T07:52:54.442Z,90.50
2019-02-15T07:55:24.784Z,83.20
2019-02-15T07:57:55.322Z,84.73
2019-02-15T08:00:25.664Z,87.40
2019-02-15T08:02:56.206Z,86.77
2019-02-15T08:05:26.452Z,78.20
2019-02-15T08:07:57.578Z,78.10
2019-02-15T08:10:27.834Z,81.87
2019-02-15T08:12:58.166Z,77.80
2019-02-15T08:15:35.974Z,75.37
2019-02-15T08:18:00.518Z,66.23
2019-02-15T08:20:31.134Z,75.63
2019-02-15T08:23:01.301Z,73.20
2019-02-15T08:25:31.927Z,73.67
2019-02-15T08:28:03.266Z,70.63
2019-02-15T08:30:33.717Z,67.47
2019-02-15T08:33:03.971Z,71.80
2019-02-15T08:35:34.234Z,64.80
2019-02-15T08:38:05.146Z,62.33
2019-02-15T08:40:37.388Z,69.00
2019-02-15T08:43:08.050Z,63.90
2019-02-15T08:45:38.308Z,67.80
2019-02-15T08:48:08.594Z,63.73
2019-02-15T08:50:38.940Z,63.00
2019-02-15T08:53:09.517Z,64.50
2019-02-15T08:55:39.843Z,67.53
2019-02-15T08:58:11.443Z,65.33
2019-02-15T09:00:42.354Z,57.97
2019-02-15T09:03:12.862Z,58.97
2019-02-15T09:05:45.256Z,62.77
2019-02-15T09:08:15.804Z,59.03
2019-02-15T09:10:46.339Z,56.53
2019-02-15T09:13:16.625Z,55.63
2019-02-15T09:15:47.061Z,62.73
2019-02-15T09:18:17.363Z,60.03
2019-02-15T09:20:47.661Z,58.00
2019-02-15T09:23:18.348Z,51.83
2019-02-15T09:25:48.646Z,55.10
2019-02-15T09:28:42.933Z,52.40
2019-02-15T09:31:13.191Z,48.47
2019-02-15T09:33:44.120Z,53.77
2019-02-15T09:36:14.493Z,55.37
2019-02-15T09:38:45.481Z,48.30
2019-02-15T09:41:15.741Z,54.17
2019-02-15T09:43:46.549Z,46.13
2019-02-15T09:46:19.871Z,50.00
2019-02-15T09:48:49.147Z,50.83
2019-02-15T09:51:19.387Z,54.63
2019-02-15T09:53:49.671Z,52.67
2019-02-15T09:56:20.115Z,61.37
2019-02-15T09:58:50.399Z,55.20
2019-02-15T10:01:20.628Z,50.93
2019-02-15T10:03:51.110Z,54.37
2019-02-15T10:06:21.404Z,51.77
2019-02-15T10:08:52.759Z,49.27
2019-02-15T10:11:23.051Z,53.30
2019-02-15T10:13:53.515Z,46.83
2019-02-15T10:16:29.790Z,46.93
2019-02-15T10:18:56.107Z,55.07
2019-02-15T10:21:26.503Z,48.20
2019-02-15T10:23:57.164Z,50.57
2019-02-15T10:26:27.461Z,56.20
2019-02-15T10:28:59.138Z,45.47
2019-02-15T10:31:30.006Z,45.93
2019-02-15T10:34:00.828Z,48.33
2019-02-15T10:36:31.099Z,49.23
2019-02-15T10:39:02.187Z,52.33
2019-02-15T10:41:34.048Z,54.37
2019-02-15T10:44:04.765Z,48.53
2019-02-15T10:46:37.928Z,55.03
2019-02-15T10:49:07.555Z,52.97
2019-02-15T10:51:37.846Z,53.70
2019-02-15T10:54:08.332Z,56.80
2019-02-15T10:56:38.696Z,59.77
2019-02-15T10:59:11.128Z,57.20
2019-02-15T11:01:41.148Z,61.43
2019-02-15T11:04:11.755Z,65.23
2019-02-15T11:06:42.183Z,59.10
2019-02-15T11:09:13.664Z,58.40
2019-02-15T11:11:43.971Z,59.17
2019-02-15T11:14:14.531Z,63.03
2019-02-15T11:16:47.292Z,60.50
2019-02-15T11:19:16.949Z,64.77
2019-02-15T11:21:47.237Z,68.23
2019-02-15T11:24:17.630Z,70.27
2019-02-15T11:26:48.051Z,72.93
2019-02-15T11:29:20.114Z,73.53
2019-02-15T11:31:50.963Z,72.20
2019-02-15T11:34:21.275Z,81.93
2019-02-15T11:36:51.532Z,74.17
2019-02-15T11:39:22.198Z,73.73
2019-02-15T11:41:52.623Z,75.73
2019-02-15T11:44:23.641Z,65.13
2019-02-15T11:46:56.739Z,75.67
2019-02-15T11:49:26.210Z,76.23
2019-02-15T11:51:56.462Z,76.57
2019-02-15T11:54:27.062Z,83.50
2019-02-15T11:56:57.368Z,85.67
2019-02-15T11:59:27.917Z,76.93
2019-02-15T12:02:05.770Z,75.03
2019-02-15T12:04:30.446Z,76.70
2019-02-15T12:07:00.719Z,76.20
2019-02-15T12:09:31.431Z,72.57
2019-02-15T12:12:10.139Z,70.77
2019-02-15T12:14:34.271Z,77.60
2019-02-15T12:17:05.875Z,70.27
2019-02-15T12:19:37.056Z,77.37
2019-02-15T12:22:07.353Z,75.33
2019-02-15T12:24:37.936Z,74.53
2019-02-15T12:27:08.176Z,77.30
2019-02-15T12:29:39.628Z,76.27
2019-02-15T12:32:09.936Z,78.83
2019-02-15T12:34:40.654Z,77.37
2019-02-15T12:37:10.964Z,75.27
2019-02-15T12:39:42.036Z,69.40
2019-02-15T12:42:13.918Z,77.43
2019-02-15T12:44:44.392Z,78.97
2019-02-15T12:47:15.329Z,76.87
2019-02-15T12:49:46.276Z,82.90
2019-02-15T12:52:16.535Z,85.60
2019-02-15T12:54:47.334Z,77.47
2019-02-15T12:57:17.586Z,74.67
2019-02-15T12:59:48.186Z,70.90
2019-02-15T13:02:18.461Z,85.20
2019-02-15T13:04:48.730Z,86.40
2019-02-15T13:07:18.999Z,85.13
2019-02-15T13:09:49.691Z,93.53
2019-02-15T13:12:20.460Z,95.47
2019-02-15T13:14:51.058Z,94.40
2019-02-15T13:17:24.646Z,105.10
2019-02-15T13:19:53.762Z,92.37
2019-02-15T13:22:24.389Z,92.73
2019-02-15T13:24:54.662Z,107.93
2019-02-15T13:27:25.450Z,104.50
2019-02-15T13:29:56.181Z,105.50
2019-02-15T13:32:26.548Z,105.67
2019-02-15T13:34:56.807Z,96.97
2019-02-15T13:37:27.079Z,107.07
2019-02-15T13:39:57.826Z,99.73
2019-02-15T13:42:28.282Z,101.20
2019-02-15T13:44:58.955Z,103.53
2019-02-15T13:47:34.658Z,101.40
2019-02-15T13:50:02.978Z,103.90
2019-02-15T13:52:33.391Z,95.17
2019-02-15T13:55:03.923Z,100.33
2019-02-15T13:57:34.228Z,104.23
2019-02-15T14:00:05.309Z,96.90
2019-02-15T14:02:36.211Z,102.70
2019-02-15T14:05:06.831Z,102.50
2019-02-15T14:07:37.061Z,100.43
2019-02-15T14:10:09.955Z,93.77
2019-02-15T14:12:40.519Z,97.53
2019-02-15T14:15:11.284Z,96.70
2019-02-15T14:17:45.499Z,101.67
2019-02-15T14:20:13.933Z,99.10
2019-02-15T14:22:44.217Z,106.30
2019-02-15T14:25:15.281Z,110.90
2019-02-15T14:27:45.625Z,111.37
2019-02-15T14:30:16.671Z,106.63
2019-02-15T14:32:48.227Z,114.60
2019-02-15T14:35:18.935Z,119.93
2019-02-15T14:37:49.360Z,114.80
2019-02-15T14:40:20.300Z,120.20
2019-02-15T14:42:50.626Z,119.77
2019-02-15T14:45:21.719Z,128.10
2019-02-15T14:47:54.919Z,125.03
2019-02-15T14:50:24.259Z,123.63
2019-02-15T14:52:54.577Z,118.47
2019-02-15T14:55:25.058Z,125.37
2019-02-15T14:57:55.311Z,129.83
2019-02-15T15:00:25.575Z,128.50
2019-02-15T15:02:56.610Z,119.87
2019-02-15T15:05:26.897Z,130.83
2019-02-15T15:07:57.275Z,120.30
2019-02-15T15:10:28.035Z,121.23
2019-02-15T15:12:58.715Z,124.17
2019-02-15T15:15:29.089Z,128.90
2019-02-15T15:18:10.735Z,128.90
2019-02-15T15:20:31.413Z,130.77
2019-02-15T15:23:02.052Z,123.77
2019-02-15T15:25:32.311Z,138.30
2019-02-15T15:28:02.787Z,126.40
2019-02-15T15:30:34.553Z,130.80
2019-02-15T15:33:05.430Z,134.93
2019-02-15T15:35:35.687Z,132.03
2019-02-15T15:38:06.002Z,144.67
2019-02-15T15:40:37.012Z,127.70
2019-02-15T15:43:07.317Z,129.70
2019-02-15T15:45:38.002Z,134.80
2019-02-15T15:48:08.285Z,131.03
2019-02-15T15:50:40.150Z,131.23
2019-02-15T15:53:10.820Z,131.27
2019-02-15T15:55:41.407Z,139.70
2019-02-15T15:58:11.706Z,145.73
2019-02-15T16:00:42.456Z,133.63
2019-02-15T16:03:12.907Z,139.07
2019-02-15T16:05:43.381Z,153.20
2019-02-15T16:08:13.693Z,149.87
2019-02-15T16:10:44.910Z,150.47
2019-02-15T16:13:15.189Z,144.50
2019-02-15T16:15:45.694Z,144.07
2019-02-15T16:18:16.064Z,143.73
2019-02-15T16:20:46.689Z,151.07
2019-02-15T16:23:16.872Z,134.33
2019-02-15T16:25:47.406Z,134.80
2019-02-15T16:28:17.766Z,135.17
2019-02-15T16:30:48.832Z,134.77
2019-02-15T16:33:19.107Z,134.00
2019-02-15T16:35:49.596Z,144.07
2019-02-15T16:38:19.904Z,134.07
2019-02-15T16:40:50.940Z,133.00
2019-02-15T16:43:22.602Z,132.60
2019-02-15T16:45:53.400Z,131.07
2019-02-15T16:48:23.594Z,134.90
2019-02-15T16:50:54.178Z,142.10
2019-02-15T16:53:24.457Z,140.60
2019-02-15T16:55:55.006Z,133.40
2019-02-15T16:58:25.328Z,137.00
2019-02-15T17:00:55.653Z,133.40
2019-02-15T17:03:26.373Z,139.80
2019-02-15T17:05:56.717Z,147.83
2019-02-15T17:08:27.437Z,148.17
2019-02-15T17:10:58.115Z,163.57
2019-02-15T17:13:28.836Z,159.50
2019-02-15T17:15:59.160Z,161.83
2019-02-15T17:18:30.105Z,163.07
2019-02-15T17:21:00.447Z,169.83
2019-02-15T17:23:31.157Z,160.53
2019-02-15T17:26:01.638Z,167.90
2019-02-15T17:28:34.386Z,170.80
2019-02-15T17:31:05.957Z,171.07
2019-02-15T17:33:36.706Z,185.93
2019-02-15T17:36:07.051Z,177.27
2019-02-15T17:38:37.344Z,187.20
2019-02-15T17:41:08.274Z,177.17
2019-02-15T17:43:38.578Z,182.50
2019-02-15T17:46:09.022Z,174.97
2019-02-15T17:48:39.241Z,165.33
2019-02-15T17:51:09.711Z,178.93
2019-02-15T17:53:40.302Z,165.53
2019-02-15T17:56:10.579Z,155.37
2019-02-15T17:58:41.056Z,154.60
2019-02-15T18:01:11.329Z,154.13
2019-02-15T18:03:41.636Z,144.97
2019-02-15T18:06:12.305Z,146.80
2019-02-15T18:08:42.598Z,139.10
2019-02-15T18:11:13.059Z,127.63
2019-02-15T18:13:43.311Z,105.87
2019-02-15T18:16:13.847Z,121.40
2019-02-15T18:18:44.117Z,130.80
2019-02-15T18:21:14.857Z,123.57
2019-02-15T18:23:45.381Z,121.13
2019-02-15T18:26:15.911Z,116.13
2019-02-15T18:28:47.566Z,103.37
2019-02-15T18:31:18.819Z,111.33
2019-02-15T18:33:49.147Z,114.37
2019-02-15T18:36:19.632Z,115.07
2019-02-15T18:38:49.881Z,118.00
2019-02-15T18:41:23.703Z,119.43
2019-02-15T18:43:54.703Z,119.37
2019-02-15T18:46:25.687Z,121.90
2019-02-15T18:48:56.051Z,122.40
2019-02-15T18:51:26.855Z,131.20
2019-02-15T18:53:57.245Z,128.20
2019-02-15T18:56:27.983Z,130.00
2019-02-15T18:58:58.653Z,123.30
2019-02-15T19:01:29.143Z,117.40
2019-02-15T19:03:59.427Z,122.80
2019-02-15T19:06:30.164Z,131.57
2019-02-15T19:09:00.624Z,128.03
2019-02-15T19:11:33.429Z,119.87
2019-02-15T19:14:03.848Z,130.37
2019-02-15T19:16:34.503Z,141.70
2019-02-15T19:19:04.797Z,135.23
2019-02-15T19:21:35.341Z,135.87
2019-02-15T19:24:06.672Z,133.40
2019-02-15T19:26:37.277Z,141.27
2019-02-15T19:29:07.720Z,135.27
2019-02-15T19:31:39.809Z,129.00
2019-02-15T19:34:11.427Z,121.93
2019-02-15T19:36:42.100Z,120.60
2019-02-15T19:39:14.122Z,124.33
2019-02-15T19:41:45.029Z,137.30
2019-02-15T19:44:15.384Z,119.83
2019-02-15T19:46:45.596Z,128.17
2019-02-15T19:49:16.294Z,135.00
2019-02-15T19:51:46.486Z,136.77
2019-02-15T19:54:17.367Z,139.57
2019-02-15T19:56:47.647Z,138.10
2019-02-15T19:59:18.398Z,119.27
2019-02-15T20:01:48.682Z,117.80
2019-02-15T20:04:19.450Z,109.63
2019-02-15T20:06:49.868Z,122.60
2019-02-15T20:09:20.533Z,121.43
2019-02-15T20:11:51.553Z,121.13
2019-02-15T20:14:22.182Z,128.13
2019-02-15T20:16:52.522Z,122.77
2019-02-15T20:19:23.223Z,117.53
2019-02-15T20:21:53.532Z,113.97
2019-02-15T20:24:24.310Z,119.10
2019-02-15T20:26:54.662Z,147.87
2019-02-15T20:29:25.384Z,139.70
2019-02-15T20:31:56.220Z,139.53
2019-02-15T20:34:27.047Z,122.80
2019-02-15T20:36:58.519Z,119.90
2019-02-15T20:39:29.171Z,116.63
2019-02-15T20:41:59.591Z,115.90
2019-02-15T20:44:30.415Z,117.87
2019-02-15T20:47:00.703Z,134.23
2019-02-15T20:49:31.359Z,140.50
2019-02-15T20:52:01.648Z,141.07
2019-02-15T20:54:32.227Z,144.23
2019-02-15T20:57:02.517Z,148.33
2019-02-15T20:59:33.083Z,148.33
2019-02-15T21:02:03.366Z,143.03
2019-02-15T21:04:34.006Z,143.07
2019-02-15T21:07:04.173Z,132.60
2019-02-15T21:09:34.570Z,135.87
2019-02-15T21:12:04.902Z,148.00
2019-02-15T21:14:35.194Z,137.03
2019-02-15T21:17:05.453Z,140.93
2019-02-15T21:19:35.941Z,146.63
2019-02-15T21:22:06.252Z,155.67
2019-02-15T21:24:36.598Z,159.53
2019-02-15T21:27:07.231Z,154.80
2019-02-15T21:29:44.405Z,157.27
2019-02-15T21:32:24.568Z,150.07
2019-02-15T21:34:54.935Z,152.87
2019-02-15T21:37:25.621Z,147.83
2019-02-15T21:39:55.927Z,136.77
2019-02-15T21:42:27.357Z,148.83
2019-02-15T21:44:57.657Z,135.17
2019-02-15T21:47:28.357Z,141.40
2019-02-15T21:49:58.653Z,152.33
2019-02-15T21:52:29.108Z,146.97
2019-02-15T21:54:59.413Z,156.67
2019-02-15T21:57:29.713Z,156.07
2019-02-15T22:00:01.637Z,146.43
2019-02-15T22:02:32.997Z,144.03
2019-02-15T22:05:03.587Z,151.57
2019-02-15T22:07:33.853Z,148.60
2019-02-15T22:10:04.332Z,141.33
2019-02-15T22:12:34.900Z,133.07
2019-02-15T22:15:05.702Z,127.07
2019-02-15T22:17:35.986Z,134.03
2019-02-15T22:20:07.139Z,125.40
2019-02-15T22:22:37.394Z,118.77
2019-02-15T22:25:07.817Z,116.03
2019-02-15T22:27:38.353Z,118.50
2019-02-15T22:30:11.075Z,151.17
2019-02-15T22:32:42.748Z,152.00
2019-02-15T22:35:13.193Z,157.77
2019-02-15T22:37:43.869Z,154.73
2019-02-15T22:40:28.383Z,170.53
2019-02-15T22:43:09.862Z,156.13
2019-02-15T22:45:40.161Z,160.27
2019-02-15T22:48:10.439Z,157.90
2019-02-15T22:50:41.078Z,159.20
2019-02-15T22:53:11.359Z,148.83
2019-02-15T22:55:41.834Z,147.33
2019-02-15T22:58:12.134Z,148.30
2019-02-15T23:00:50.563Z,135.37
2019-02-15T23:03:23.833Z,138.03
2019-02-15T23:05:54.392Z,130.73
2019-02-15T23:08:24.628Z,135.33
2019-02-15T23:10:55.071Z,131.83
2019-02-15T23:13:26.296Z,131.53
2019-02-15T23:15:56.578Z,149.73
2019-02-15T23:18:26.876Z,157.97
2019-02-15T23:20:57.275Z,164.30
2019-02-15T23:23:27.580Z,167.83
2019-02-15T23:25:57.904Z,167.57
2019-02-15T23:28:28.459Z,171.80
2019-02-15T23:30:58.784Z,173.00
2019-02-15T23:33:29.698Z,174.30
2019-02-15T23:36:00.430Z,182.73
2019-02-15T23:38:30.682Z,157.20
2019-02-15T23:41:00.880Z,137.27
2019-02-15T23:43:31.404Z,151.30
2019-02-15T23:46:01.712Z,138.63
2019-02-15T23:48:31.970Z,146.30
2019-02-15T23:51:02.355Z,148.10
2019-02-15T23:53:32.671Z,146.13
2019-02-15T23:56:04.975Z,161.40
2019-02-15T23:58:35.258Z,143.63
